createdAt,value
2019-04-04T00:00:52.781Z,8.23
2019-04-04T00:03:26.852Z,8.25
2019-04-04T00:05:58.492Z,8.25
2019-04-04T00:08:31.643Z,8.28
2019-04-04T00:11:04.133Z,8.32
2019-04-04T00:13:40.026Z,8.34
2019-04-04T00:16:11.676Z,8.31
2019-04-04T00:18:43.323Z,8.28
2019-04-04T00:21:14.890Z,8.29
2019-04-04T00:23:46.469Z,8.30
2019-04-04T00:26:18.130Z,8.32
2019-04-04T00:28:50.697Z,8.33
2019-04-04T00:31:22.244Z,8.29
2019-04-04T00:33:55.804Z,8.25
2019-04-04T00:36:27.114Z,8.29
2019-04-04T00:38:58.620Z,8.30
2019-04-04T00:41:30.137Z,8.30
2019-04-04T00:44:01.669Z,8.29
2019-04-04T00:46:33.183Z,8.25
2019-04-04T00:49:05.398Z,8.25
2019-04-04T00:51:38.958Z,8.29
2019-04-04T00:54:10.295Z,8.30
2019-04-04T00:56:41.810Z,8.28
2019-04-04T00:59:13.407Z,8.25
2019-04-04T01:01:44.949Z,8.27
2019-04-04T01:04:16.460Z,8.28
2019-04-04T01:06:47.996Z,8.24
2019-04-04T01:09:19.589Z,8.22
2019-04-04T01:11:51.784Z,8.15
2019-04-04T01:14:23.391Z,8.14
2019-04-04T01:16:55.030Z,8.05
2019-04-04T01:19:27.105Z,8.00
2019-04-04T01:21:58.692Z,8.00
2019-04-04T01:24:30.233Z,7.99
2019-04-04T01:27:02.029Z,8.00
2019-04-04T01:29:33.658Z,7.99
2019-04-04T01:32:05.215Z,7.98
2019-04-04T01:34:37.099Z,7.98
2019-04-04T01:37:08.661Z,7.98
2019-04-04T01:39:40.222Z,7.99
2019-04-04T01:42:11.754Z,8.02
2019-04-04T01:44:43.296Z,8.04
2019-04-04T01:47:16.656Z,8.04
2019-04-04T01:49:48.107Z,8.02
2019-04-04T01:52:19.697Z,8.01
2019-04-04T01:54:51.250Z,7.95
2019-04-04T01:57:22.810Z,7.98
2019-04-04T01:59:54.362Z,7.99
2019-04-04T02:02:25.946Z,7.96
2019-04-04T02:04:57.523Z,7.96
2019-04-04T02:07:29.797Z,7.96
2019-04-04T02:10:03.265Z,7.98
2019-04-04T02:12:35.271Z,7.99
2019-04-04T02:15:08.161Z,7.96
2019-04-04T02:17:39.754Z,7.97
2019-04-04T02:20:11.320Z,8.00
2019-04-04T02:22:42.944Z,8.01
2019-04-04T02:25:14.498Z,7.97
2019-04-04T02:27:46.109Z,7.91
2019-04-04T02:30:17.673Z,7.86
2019-04-04T02:32:49.305Z,7.90
2019-04-04T02:35:20.866Z,7.90
2019-04-04T02:37:55.040Z,7.92
2019-04-04T02:40:25.681Z,7.92
2019-04-04T02:42:57.227Z,7.90
2019-04-04T02:45:28.815Z,7.91
2019-04-04T02:48:00.363Z,7.93
2019-04-04T02:50:35.546Z,7.95
2019-04-04T02:53:05.208Z,7.92
2019-04-04T02:55:36.753Z,7.90
2019-04-04T02:58:13.870Z,7.90
2019-04-04T03:00:42.602Z,7.89
2019-04-04T03:03:14.170Z,7.90
2019-04-04T03:05:50.792Z,7.91
2019-04-04T03:08:20.052Z,7.96
2019-04-04T03:10:51.607Z,7.97
2019-04-04T03:13:23.168Z,7.97
2019-04-04T03:15:54.716Z,7.98
2019-04-04T03:18:26.331Z,7.97
2019-04-04T03:20:57.927Z,7.96
2019-04-04T03:23:32.774Z,7.94
2019-04-04T03:26:03.284Z,7.91
2019-04-04T03:28:34.865Z,7.86
2019-04-04T03:31:06.431Z,7.81
2019-04-04T03:33:38.026Z,7.86
2019-04-04T03:36:09.581Z,7.89
2019-04-04T03:38:41.170Z,7.92
2019-04-04T03:41:12.702Z,7.93
2019-04-04T03:43:48.072Z,7.91
2019-04-04T03:46:17.537Z,7.91
2019-04-04T03:48:50.856Z,7.93
2019-04-04T03:51:22.397Z,7.91
2019-04-04T03:53:56.938Z,7.97
2019-04-04T03:56:33.345Z,7.91
2019-04-04T03:59:01.776Z,7.83
2019-04-04T04:01:33.352Z,7.88
2019-04-04T04:04:04.909Z,7.93
2019-04-04T04:06:41.404Z,7.93
2019-04-04T04:09:09.735Z,7.98
2019-04-04T04:11:41.304Z,7.98
2019-04-04T04:14:12.889Z,7.97
2019-04-04T04:16:44.479Z,8.00
2019-04-04T04:19:16.049Z,7.98
2019-04-04T04:21:47.647Z,7.98
2019-04-04T04:24:19.217Z,7.95
2019-04-04T04:26:50.790Z,7.92
2019-04-04T04:29:22.374Z,7.91
2019-04-04T04:31:54.058Z,7.93
2019-04-04T04:34:25.714Z,7.90
2019-04-04T04:36:57.317Z,7.91
2019-04-04T04:39:28.861Z,7.92
2019-04-04T04:42:00.730Z,7.93
2019-04-04T04:44:32.323Z,7.88
2019-04-04T04:47:03.919Z,7.79
2019-04-04T04:49:36.405Z,7.74
2019-04-04T04:52:08.163Z,7.66
2019-04-04T04:54:40.791Z,7.67
2019-04-04T04:57:28.194Z,7.73
2019-04-04T04:59:45.707Z,7.71
2019-04-04T05:02:17.313Z,7.69
2019-04-04T05:04:48.900Z,7.70
2019-04-04T05:07:20.553Z,7.69
2019-04-04T05:09:52.160Z,7.68
2019-04-04T05:12:23.777Z,7.71
2019-04-04T05:14:59.259Z,7.71
2019-04-04T05:17:30.946Z,7.67
2019-04-04T05:20:02.570Z,7.62
2019-04-04T05:22:39.722Z,7.61
2019-04-04T05:25:10.807Z,7.63
2019-04-04T05:27:42.415Z,7.65
2019-04-04T05:30:16.066Z,7.69
2019-04-04T05:32:47.472Z,7.68
2019-04-04T05:35:20.915Z,7.61
2019-04-04T05:37:52.531Z,7.55
2019-04-04T05:40:24.239Z,7.63
2019-04-04T05:42:55.990Z,7.65
2019-04-04T05:45:27.550Z,7.66
2019-04-04T05:47:59.827Z,7.67
2019-04-04T05:50:31.561Z,7.69
2019-04-04T05:53:04.292Z,7.74
2019-04-04T05:55:36.505Z,7.74
2019-04-04T05:58:08.097Z,7.75
2019-04-04T06:00:41.327Z,7.78
2019-04-04T06:03:13.028Z,7.78
2019-04-04T06:05:46.225Z,7.75
2019-04-04T06:08:17.796Z,7.77
2019-04-04T06:10:50.086Z,7.80
2019-04-04T06:13:22.395Z,7.77
2019-04-04T06:15:53.951Z,7.76
2019-04-04T06:18:25.584Z,7.80
2019-04-04T06:20:57.170Z,7.81
2019-04-04T06:23:28.753Z,7.81
2019-04-04T06:26:00.387Z,7.79
2019-04-04T06:28:32.909Z,7.74
2019-04-04T06:31:04.506Z,7.79
2019-04-04T06:33:36.084Z,7.78
2019-04-04T06:36:07.664Z,7.74
2019-04-04T06:38:39.271Z,7.72
2019-04-04T06:41:10.879Z,7.65
2019-04-04T06:43:42.483Z,7.68
2019-04-04T06:46:14.096Z,7.66
2019-04-04T06:48:45.750Z,7.66
2019-04-04T06:51:17.389Z,7.71
2019-04-04T06:53:48.948Z,7.74
2019-04-04T06:56:20.536Z,7.75
2019-04-04T06:58:52.141Z,7.77
2019-04-04T07:01:25.362Z,7.77
2019-04-04T07:03:59.126Z,7.79
2019-04-04T07:06:30.399Z,7.77
2019-04-04T07:09:02.015Z,7.76
2019-04-04T07:11:35.221Z,7.71
2019-04-04T07:14:07.099Z,7.65
2019-04-04T07:16:38.699Z,7.73
2019-04-04T07:19:14.314Z,7.74
2019-04-04T07:21:43.619Z,7.75
2019-04-04T07:24:18.395Z,7.77
2019-04-04T07:26:50.043Z,7.76
2019-04-04T07:29:22.994Z,7.81
2019-04-04T07:31:55.037Z,7.82
2019-04-04T07:34:27.601Z,7.78
2019-04-04T07:36:59.287Z,7.80
2019-04-04T07:39:32.689Z,7.83
2019-04-04T07:42:04.200Z,7.88
2019-04-04T07:44:35.887Z,7.86
2019-04-04T07:47:07.488Z,7.88
2019-04-04T07:49:40.278Z,7.89
2019-04-04T07:52:13.024Z,7.89
2019-04-04T07:54:44.603Z,7.94
2019-04-04T07:57:17.299Z,7.98
2019-04-04T07:59:49.580Z,7.98
2019-04-04T08:02:21.202Z,7.99
2019-04-04T08:04:52.861Z,7.98
2019-04-04T08:07:24.458Z,7.94
2019-04-04T08:09:56.085Z,7.96
2019-04-04T08:12:27.665Z,8.03
2019-04-04T08:14:59.252Z,8.10
2019-04-04T08:17:30.834Z,8.13
2019-04-04T08:20:02.488Z,8.15
2019-04-04T08:22:34.086Z,8.23
2019-04-04T08:25:05.784Z,8.27
2019-04-04T08:27:37.433Z,8.26
2019-04-04T08:30:09.316Z,8.26
2019-04-04T08:32:40.933Z,8.23
2019-04-04T08:35:12.641Z,8.31
2019-04-04T08:37:44.237Z,8.35
2019-04-04T08:40:16.213Z,8.40
2019-04-04T08:42:47.792Z,8.34
2019-04-04T08:45:19.418Z,8.40
2019-04-04T08:47:51.023Z,8.45
2019-04-04T08:50:22.649Z,8.51
2019-04-04T08:52:54.232Z,8.57
2019-04-04T08:55:25.836Z,8.65
2019-04-04T08:57:59.075Z,8.61
2019-04-04T09:00:30.658Z,8.66
2019-04-04T09:03:02.227Z,8.70
2019-04-04T09:05:33.849Z,8.72
2019-04-04T09:08:05.420Z,8.75
2019-04-04T09:10:36.983Z,8.86
2019-04-04T09:13:08.579Z,8.91
2019-04-04T09:15:40.189Z,8.92
2019-04-04T09:18:11.844Z,8.82
2019-04-04T09:20:43.470Z,8.88
2019-04-04T09:23:15.098Z,8.99
2019-04-04T09:25:46.739Z,9.16
2019-04-04T09:28:18.371Z,9.19
2019-04-04T09:30:49.969Z,9.37
2019-04-04T09:33:21.536Z,9.40
2019-04-04T09:35:53.143Z,9.31
2019-04-04T09:38:24.767Z,9.20
2019-04-04T09:40:56.348Z,9.22
2019-04-04T09:43:27.942Z,9.20
2019-04-04T09:45:59.539Z,9.19
2019-04-04T09:48:31.197Z,9.17
2019-04-04T09:51:02.803Z,9.18
2019-04-04T09:53:34.402Z,9.26
2019-04-04T09:56:06.021Z,9.35
2019-04-04T09:58:37.624Z,9.37
2019-04-04T10:01:10.316Z,9.38
2019-04-04T10:03:41.961Z,9.37
2019-04-04T10:06:13.549Z,9.43
2019-04-04T10:08:45.536Z,9.47
2019-04-04T10:11:18.225Z,9.44
2019-04-04T10:13:49.843Z,9.40
2019-04-04T10:16:21.403Z,9.40
2019-04-04T10:18:53.500Z,9.37
2019-04-04T10:21:25.073Z,9.39
2019-04-04T10:23:56.661Z,9.34
2019-04-04T10:26:28.273Z,9.33
2019-04-04T10:28:59.870Z,9.36
2019-04-04T10:31:31.446Z,9.36
2019-04-04T10:34:03.007Z,9.36
2019-04-04T10:36:34.602Z,9.34
2019-04-04T10:39:11.968Z,9.28
2019-04-04T10:41:44.029Z,9.24
2019-04-04T10:44:16.605Z,9.18
2019-04-04T10:46:48.177Z,9.16
2019-04-04T10:49:19.789Z,9.07
2019-04-04T10:51:51.334Z,9.07
2019-04-04T10:54:22.910Z,9.11
2019-04-04T10:56:54.495Z,9.07
2019-04-04T10:59:27.139Z,9.10
2019-04-04T11:02:00.999Z,9.12
2019-04-04T11:04:32.127Z,9.14
2019-04-04T11:07:03.799Z,9.15
2019-04-04T11:09:41.857Z,9.20
2019-04-04T11:12:08.636Z,9.24
2019-04-04T11:14:40.257Z,9.35
2019-04-04T11:17:11.850Z,9.45
2019-04-04T11:19:43.639Z,9.55
2019-04-04T11:22:15.199Z,9.41
2019-04-04T11:24:46.774Z,9.36
2019-04-04T11:27:18.428Z,9.38
2019-04-04T11:29:50.022Z,9.37
2019-04-04T11:32:21.644Z,9.21
2019-04-04T11:34:53.714Z,9.08
2019-04-04T11:37:27.199Z,9.08
2019-04-04T11:39:58.852Z,9.07
2019-04-04T11:42:30.440Z,9.08
2019-04-04T11:45:04.475Z,9.08
2019-04-04T11:47:36.083Z,9.08
2019-04-04T11:50:08.868Z,9.03
2019-04-04T11:52:40.499Z,9.04
2019-04-04T11:55:12.211Z,8.99
2019-04-04T11:57:43.793Z,8.98
2019-04-04T12:00:21.082Z,8.99
2019-04-04T12:02:52.699Z,8.98
2019-04-04T12:05:24.278Z,9.02
2019-04-04T12:07:55.893Z,9.06
2019-04-04T12:10:27.507Z,9.04
2019-04-04T12:12:59.096Z,8.92
2019-04-04T12:15:30.709Z,8.91
2019-04-04T12:18:02.319Z,8.93
2019-04-04T12:20:35.043Z,8.91
2019-04-04T12:23:06.622Z,8.91
2019-04-04T12:25:38.300Z,8.93
2019-04-04T12:28:09.874Z,9.00
2019-04-04T12:30:41.480Z,8.91
2019-04-04T12:33:13.078Z,8.94
2019-04-04T12:35:44.677Z,9.01
2019-04-04T12:38:16.231Z,8.99
2019-04-04T12:40:47.839Z,8.90
2019-04-04T12:43:19.413Z,8.91
2019-04-04T12:45:51.049Z,8.96
2019-04-04T12:48:22.612Z,9.03
2019-04-04T12:50:54.225Z,8.91
2019-04-04T12:53:25.901Z,8.89
2019-04-04T12:55:57.515Z,8.75
2019-04-04T12:58:29.062Z,8.67
2019-04-04T13:01:00.797Z,8.62
2019-04-04T13:03:32.626Z,8.56
2019-04-04T13:06:04.202Z,8.54
2019-04-04T13:08:36.742Z,8.52
2019-04-04T13:11:09.385Z,8.44
2019-04-04T13:13:41.006Z,8.34
2019-04-04T13:16:12.611Z,8.32
2019-04-04T13:18:44.244Z,8.37
2019-04-04T13:21:15.816Z,8.31
2019-04-04T13:23:47.412Z,8.33
2019-04-04T13:26:18.989Z,8.30
2019-04-04T13:28:50.605Z,8.31
2019-04-04T13:31:22.169Z,8.27
2019-04-04T13:33:53.847Z,8.26
2019-04-04T13:36:25.460Z,8.29
2019-04-04T13:38:57.088Z,8.33
2019-04-04T13:41:28.786Z,8.32
2019-04-04T13:44:00.374Z,8.32
2019-04-04T13:46:32.046Z,8.20
2019-04-04T13:49:03.677Z,8.26
2019-04-04T13:51:35.260Z,8.26
2019-04-04T13:54:06.858Z,8.37
2019-04-04T13:56:38.469Z,8.49
2019-04-04T13:59:10.077Z,8.67
2019-04-04T14:01:42.916Z,8.77
2019-04-04T14:04:14.731Z,8.74
2019-04-04T14:06:46.326Z,8.69
2019-04-04T14:09:17.960Z,8.71
2019-04-04T14:11:49.501Z,8.64
2019-04-04T14:14:21.125Z,8.58
2019-04-04T14:16:52.715Z,8.52
2019-04-04T14:19:24.361Z,8.52
2019-04-04T14:21:55.968Z,8.47
2019-04-04T14:24:27.586Z,8.40
2019-04-04T14:26:59.140Z,8.21
2019-04-04T14:29:30.823Z,8.09
2019-04-04T14:32:02.418Z,8.05
2019-04-04T14:34:34.050Z,8.16
2019-04-04T14:37:05.629Z,8.11
2019-04-04T14:39:37.294Z,8.11
2019-04-04T14:42:08.969Z,8.18
2019-04-04T14:44:40.628Z,8.13
2019-04-04T14:47:15.850Z,8.07
2019-04-04T14:49:46.053Z,8.02
2019-04-04T14:52:19.826Z,7.99
2019-04-04T14:54:51.174Z,7.98
2019-04-04T14:57:22.859Z,7.91
2019-04-04T14:59:54.436Z,7.99
2019-04-04T15:02:26.046Z,8.09
2019-04-04T15:04:57.801Z,8.13
2019-04-04T15:07:29.447Z,8.20
2019-04-04T15:10:01.059Z,8.29
2019-04-04T15:12:32.680Z,8.38
2019-04-04T15:15:04.469Z,8.38
2019-04-04T15:17:36.062Z,8.44
2019-04-04T15:20:08.175Z,8.53
2019-04-04T15:22:39.742Z,8.60
2019-04-04T15:25:11.346Z,8.61
2019-04-04T15:27:42.970Z,8.60
2019-04-04T15:30:14.791Z,8.48
2019-04-04T15:32:46.387Z,8.39
2019-04-04T15:35:18.066Z,8.32
2019-04-04T15:37:49.610Z,8.43
2019-04-04T15:40:22.353Z,8.44
2019-04-04T15:42:54.092Z,8.40
2019-04-04T15:45:25.690Z,8.42
2019-04-04T15:47:57.376Z,8.45
2019-04-04T15:50:29.012Z,8.45
2019-04-04T15:53:00.816Z,8.44
2019-04-04T15:55:32.579Z,8.42
2019-04-04T15:58:04.207Z,8.35
2019-04-04T16:00:36.001Z,8.32
2019-04-04T16:03:07.646Z,8.25
2019-04-04T16:05:39.420Z,8.30
2019-04-04T16:08:11.157Z,8.30
2019-04-04T16:10:42.726Z,8.23
2019-04-04T16:13:16.040Z,8.15
2019-04-04T16:15:47.815Z,8.14
2019-04-04T16:18:19.545Z,8.06
2019-04-04T16:20:51.390Z,8.07
2019-04-04T16:23:23.041Z,8.01
2019-04-04T16:25:54.624Z,8.03
2019-04-04T16:28:26.301Z,7.88
2019-04-04T16:30:58.043Z,7.86
2019-04-04T16:33:29.679Z,7.82
2019-04-04T16:36:01.354Z,7.81
2019-04-04T16:38:32.993Z,7.78
2019-04-04T16:41:05.863Z,7.72
2019-04-04T16:43:38.650Z,7.74
2019-04-04T16:46:10.307Z,7.76
2019-04-04T16:48:42.002Z,7.75
2019-04-04T16:51:13.635Z,7.75
2019-04-04T16:53:45.467Z,7.74
2019-04-04T16:56:17.025Z,7.70
2019-04-04T16:58:48.649Z,7.72
2019-04-04T17:01:20.373Z,7.82
2019-04-04T17:04:01.427Z,7.84
2019-04-04T17:06:25.873Z,7.86
2019-04-04T17:08:57.451Z,7.83
2019-04-04T17:11:29.137Z,7.81
2019-04-04T17:14:00.733Z,7.80
2019-04-04T17:16:32.324Z,7.77
2019-04-04T17:19:03.963Z,7.81
2019-04-04T17:21:35.737Z,7.85
2019-04-04T17:24:07.948Z,7.86
2019-04-04T17:26:40.487Z,7.89
2019-04-04T17:29:13.216Z,7.84
2019-04-04T17:31:44.779Z,7.89
2019-04-04T17:34:17.009Z,7.84
2019-04-04T17:36:49.122Z,7.83
2019-04-04T17:39:20.812Z,7.80
2019-04-04T17:41:52.397Z,7.81
2019-04-04T17:44:24.095Z,7.84
2019-04-04T17:46:56.126Z,7.83
2019-04-04T17:49:28.285Z,7.81
2019-04-04T17:51:59.911Z,7.85
2019-04-04T17:54:31.662Z,7.84
2019-04-04T17:57:03.299Z,7.78
2019-04-04T17:59:34.847Z,7.74
2019-04-04T18:02:06.523Z,7.70
2019-04-04T18:04:47.739Z,7.67
2019-04-04T18:07:11.445Z,7.60
2019-04-04T18:09:45.469Z,7.58
2019-04-04T18:12:17.032Z,7.56
2019-04-04T18:14:48.736Z,7.61
2019-04-04T18:17:20.362Z,7.59
2019-04-04T18:19:52.005Z,7.53
2019-04-04T18:22:23.587Z,7.46
2019-04-04T18:24:55.198Z,7.45
2019-04-04T18:27:26.813Z,7.45
2019-04-04T18:29:58.437Z,7.48
2019-04-04T18:32:30.023Z,7.47
2019-04-04T18:35:01.618Z,7.48
2019-04-04T18:37:33.283Z,7.48
2019-04-04T18:40:06.061Z,7.47
2019-04-04T18:42:37.637Z,7.38
2019-04-04T18:45:09.626Z,7.30
2019-04-04T18:47:41.237Z,7.31
2019-04-04T18:50:14.092Z,7.30
2019-04-04T18:52:45.798Z,7.32
2019-04-04T18:55:20.158Z,7.31
2019-04-04T18:57:50.720Z,7.31
2019-04-04T19:00:22.549Z,7.31
2019-04-04T19:02:54.190Z,7.33
2019-04-04T19:05:25.845Z,7.37
2019-04-04T19:07:57.482Z,7.38
2019-04-04T19:10:29.127Z,7.35
2019-04-04T19:13:05.545Z,7.38
2019-04-04T19:15:34.169Z,7.39
2019-04-04T19:18:07.674Z,7.43
2019-04-04T19:20:39.267Z,7.47
2019-04-04T19:23:11.020Z,7.36
2019-04-04T19:25:42.599Z,7.37
2019-04-04T19:28:14.236Z,7.43
2019-04-04T19:30:45.838Z,7.38
2019-04-04T19:33:17.459Z,7.34
2019-04-04T19:35:49.066Z,7.35
2019-04-04T19:38:20.661Z,7.38
2019-04-04T19:40:52.439Z,7.38
2019-04-04T19:43:24.073Z,7.39
2019-04-04T19:45:55.678Z,7.38
2019-04-04T19:48:27.266Z,7.39
2019-04-04T19:50:58.873Z,7.43
2019-04-04T19:53:30.504Z,7.44
2019-04-04T19:56:02.147Z,7.44
2019-04-04T19:58:33.773Z,7.47
2019-04-04T20:01:06.389Z,7.50
2019-04-04T20:03:37.990Z,7.49
2019-04-04T20:06:09.594Z,7.49
2019-04-04T20:08:41.218Z,7.51
2019-04-04T20:11:13.840Z,7.51
2019-04-04T20:13:45.443Z,7.53
2019-04-04T20:16:17.092Z,7.52
2019-04-04T20:18:48.764Z,7.55
2019-04-04T20:21:20.404Z,7.62
2019-04-04T20:23:52.030Z,7.60
2019-04-04T20:26:23.712Z,7.63
2019-04-04T20:28:55.328Z,7.66
2019-04-04T20:31:26.930Z,7.67
2019-04-04T20:34:01.779Z,7.65
2019-04-04T20:36:31.833Z,7.69
2019-04-04T20:39:04.646Z,7.66
2019-04-04T20:41:36.926Z,7.65
2019-04-04T20:44:08.620Z,7.70
2019-04-04T20:46:40.251Z,7.70
2019-04-04T20:49:11.849Z,7.69
2019-04-04T20:51:43.465Z,7.68
2019-04-04T20:54:15.087Z,7.65
2019-04-04T20:56:46.682Z,7.66
2019-04-04T20:59:18.362Z,7.68
2019-04-04T21:01:49.978Z,7.68
2019-04-04T21:04:21.594Z,7.70
2019-04-04T21:06:53.174Z,7.69
2019-04-04T21:09:24.782Z,7.67
2019-04-04T21:11:56.389Z,7.68
2019-04-04T21:14:28.412Z,7.68
2019-04-04T21:17:00.174Z,7.66
2019-04-04T21:19:31.757Z,7.65
2019-04-04T21:22:03.370Z,7.67
2019-04-04T21:24:34.954Z,7.66
2019-04-04T21:27:06.711Z,7.67
2019-04-04T21:29:38.274Z,7.65
2019-04-04T21:32:09.921Z,7.57
2019-04-04T21:34:41.527Z,7.57
2019-04-04T21:37:13.136Z,7.59
2019-04-04T21:39:44.740Z,7.61
2019-04-04T21:42:16.344Z,7.65
2019-04-04T21:44:47.961Z,7.67
2019-04-04T21:47:19.559Z,7.65
2019-04-04T21:49:51.135Z,7.67
2019-04-04T21:52:22.826Z,7.67
2019-04-04T21:54:55.645Z,7.68
2019-04-04T21:57:27.320Z,7.69
2019-04-04T21:59:58.961Z,7.70
2019-04-04T22:02:30.750Z,7.73
2019-04-04T22:05:02.338Z,7.73
2019-04-04T22:07:34.009Z,7.74
2019-04-04T22:10:06.582Z,7.72
2019-04-04T22:12:38.288Z,7.75
2019-04-04T22:15:10.286Z,7.75
2019-04-04T22:17:41.944Z,7.77
2019-04-04T22:20:13.530Z,7.73
2019-04-04T22:22:45.144Z,7.66
2019-04-04T22:25:16.721Z,7.65
2019-04-04T22:27:48.348Z,7.64
2019-04-04T22:30:20.022Z,7.64
2019-04-04T22:32:51.637Z,7.65
2019-04-04T22:35:23.218Z,7.53
2019-04-04T22:37:54.833Z,7.57
2019-04-04T22:40:26.445Z,7.58
2019-04-04T22:42:58.071Z,7.59
2019-04-04T22:45:30.871Z,7.62
2019-04-04T22:48:03.549Z,7.66
2019-04-04T22:50:35.106Z,7.67
2019-04-04T22:53:06.719Z,7.68
2019-04-04T22:55:38.312Z,7.68
2019-04-04T22:58:09.941Z,7.69
2019-04-04T23:00:41.514Z,7.70
2019-04-04T23:03:13.264Z,7.74
2019-04-04T23:05:44.930Z,7.74
2019-04-04T23:08:17.500Z,7.74
2019-04-04T23:10:49.072Z,7.74
2019-04-04T23:13:20.662Z,7.77
2019-04-04T23:15:52.256Z,7.74
2019-04-04T23:18:23.858Z,7.76
2019-04-04T23:20:55.437Z,7.77
2019-04-04T23:23:27.026Z,7.78
2019-04-04T23:25:58.611Z,7.76
2019-04-04T23:28:30.211Z,7.71
2019-04-04T23:31:01.824Z,7.69
2019-04-04T23:33:33.431Z,7.68
2019-04-04T23:36:06.827Z,7.65
2019-04-04T23:38:38.403Z,7.65
2019-04-04T23:41:10.013Z,7.67
2019-04-04T23:43:41.585Z,7.68
2019-04-04T23:46:13.162Z,7.69
2019-04-04T23:48:45.796Z,7.69
2019-04-04T23:51:17.384Z,7.72
2019-04-04T23:53:48.990Z,7.72
2019-04-04T23:56:20.575Z,7.68
2019-04-04T23:58:52.212Z,7.67
